createdAt,value
2022-08-14T00:02:31.508Z,20.30
2022-08-14T00:05:00.189Z,20.40
2022-08-14T00:07:28.538Z,20.30
2022-08-14T00:10:49.283Z,20.30
2022-08-14T00:12:56.832Z,20.30
2022-08-14T00:15:43.287Z,20.30
2022-08-14T00:18:30.239Z,20.20
2022-08-14T00:21:11.419Z,20.20
2022-08-14T00:23:40.333Z,20.20
2022-08-14T00:26:22.054Z,20.30
2022-08-14T00:28:52.734Z,20.20
2022-08-14T00:31:32.956Z,20.20
2022-08-14T00:34:37.896Z,20.20
2022-08-14T00:36:53.917Z,20.00
2022-08-14T00:39:22.985Z,19.90
2022-08-14T00:41:54.047Z,19.90
2022-08-14T00:44:32.946Z,19.90
2022-08-14T00:47:02.381Z,19.80
2022-08-14T00:49:38.057Z,19.20
2022-08-14T00:52:14.151Z,19.30
2022-08-14T00:54:47.473Z,19.30
2022-08-14T00:57:15.851Z,19.10
2022-08-14T00:59:45.563Z,19.00
2022-08-14T01:02:17.801Z,18.90
2022-08-14T01:04:54.440Z,18.90
2022-08-14T01:07:24.533Z,18.90
2022-08-14T01:09:58.801Z,18.90
2022-08-14T01:12:29.936Z,18.90
2022-08-14T01:14:59.548Z,18.90
2022-08-14T01:17:50.768Z,18.90
2022-08-14T01:20:54.732Z,19.00
2022-08-14T01:23:26.826Z,19.00
2022-08-14T01:26:12.146Z,19.10
2022-08-14T01:28:57.771Z,19.10
2022-08-14T01:31:27.676Z,19.10
2022-08-14T01:35:16.637Z,19.10
2022-08-14T01:36:52.968Z,19.20
2022-08-14T01:39:23.800Z,19.00
2022-08-14T01:41:58.167Z,18.90
2022-08-14T01:44:32.649Z,18.80
2022-08-14T01:47:05.798Z,18.90
2022-08-14T01:49:35.783Z,18.70
2022-08-14T01:52:34.391Z,18.80
2022-08-14T01:55:06.756Z,18.80
2022-08-14T01:58:01.854Z,18.70
2022-08-14T02:00:27.818Z,18.50
2022-08-14T02:02:58.303Z,18.40
2022-08-14T02:05:34.996Z,18.40
2022-08-14T02:08:09.599Z,18.40
2022-08-14T02:10:46.992Z,18.20
2022-08-14T02:13:19.867Z,18.10
2022-08-14T02:15:50.221Z,18.10
2022-08-14T02:18:19.130Z,18.20
2022-08-14T02:20:51.421Z,18.20
2022-08-14T02:23:28.918Z,18.20
2022-08-14T02:26:24.241Z,18.20
2022-08-14T02:28:58.329Z,18.20
2022-08-14T02:31:41.954Z,18.10
2022-08-14T02:34:21.839Z,18.10
2022-08-14T02:37:05.466Z,18.00
2022-08-14T02:39:37.724Z,18.00
2022-08-14T02:42:13.041Z,18.10
2022-08-14T02:44:49.604Z,18.00
2022-08-14T02:47:21.375Z,18.00
2022-08-14T02:49:54.783Z,18.10
2022-08-14T02:52:26.804Z,18.00
2022-08-14T02:55:19.978Z,17.60
2022-08-14T02:57:58.044Z,17.40
2022-08-14T03:00:33.133Z,17.40
2022-08-14T03:03:07.537Z,17.50
2022-08-14T03:05:41.078Z,17.30
2022-08-14T03:08:15.220Z,17.30
2022-08-14T03:10:48.649Z,17.20
2022-08-14T03:13:21.706Z,17.10
2022-08-14T03:15:56.152Z,17.10
2022-08-14T03:18:31.997Z,17.10
2022-08-14T03:21:05.147Z,17.00
2022-08-14T03:23:37.742Z,17.10
2022-08-14T03:26:08.544Z,17.10
2022-08-14T03:28:40.587Z,17.10
2022-08-14T03:31:13.328Z,17.00
2022-08-14T03:33:43.206Z,17.10
2022-08-14T03:37:51.841Z,17.00
2022-08-14T03:39:13.672Z,17.00
2022-08-14T03:41:49.609Z,17.10
2022-08-14T03:45:25.297Z,16.90
2022-08-14T03:47:11.699Z,16.90
2022-08-14T03:49:49.674Z,16.90
2022-08-14T03:52:38.854Z,16.80
2022-08-14T03:55:09.043Z,16.90
2022-08-14T03:57:37.971Z,16.90
2022-08-14T04:00:44.450Z,17.00
2022-08-14T04:03:02.417Z,17.00
2022-08-14T04:05:38.056Z,16.90
2022-08-14T04:08:28.988Z,16.90
2022-08-14T04:11:01.270Z,16.80
2022-08-14T04:13:31.632Z,16.90
2022-08-14T04:16:05.317Z,16.90
2022-08-14T04:18:40.887Z,17.00
2022-08-14T04:21:11.896Z,17.00
2022-08-14T04:23:40.831Z,17.00
2022-08-14T04:26:27.389Z,17.00
2022-08-14T04:29:14.322Z,16.90
2022-08-14T04:33:02.205Z,16.90
2022-08-14T04:34:36.408Z,16.60
2022-08-14T04:37:24.709Z,16.60
2022-08-14T04:40:12.542Z,16.50
2022-08-14T04:42:58.938Z,16.30
2022-08-14T04:45:36.378Z,16.30
2022-08-14T04:48:40.028Z,16.30
2022-08-14T04:51:07.061Z,16.30
2022-08-14T04:53:42.910Z,16.00
2022-08-14T04:56:31.427Z,15.90
2022-08-14T04:59:09.655Z,16.00
2022-08-14T05:01:45.146Z,16.20
2022-08-14T05:04:20.594Z,16.40
2022-08-14T05:06:53.574Z,16.50
2022-08-14T05:09:23.936Z,16.40
2022-08-14T05:11:53.103Z,16.50
2022-08-14T05:14:45.653Z,16.70
2022-08-14T05:17:13.110Z,16.80
2022-08-14T05:19:44.748Z,16.90
2022-08-14T05:22:31.472Z,16.80
2022-08-14T05:25:00.429Z,17.00
2022-08-14T05:27:31.160Z,17.10
2022-08-14T05:30:01.508Z,17.20
2022-08-14T05:32:30.320Z,17.20
2022-08-14T05:35:01.045Z,17.20
2022-08-14T05:37:31.063Z,17.10
2022-08-14T05:40:01.068Z,17.20
2022-08-14T05:42:32.250Z,17.30
2022-08-14T05:45:04.628Z,17.40
2022-08-14T05:47:39.238Z,17.40
2022-08-14T05:50:17.413Z,17.40
2022-08-14T05:52:49.469Z,17.60
2022-08-14T05:55:22.516Z,17.70
2022-08-14T05:57:53.951Z,17.70
2022-08-14T06:00:29.293Z,18.00
2022-08-14T06:03:04.221Z,18.10
2022-08-14T06:05:38.838Z,18.20
2022-08-14T06:08:31.373Z,18.30
2022-08-14T06:11:07.802Z,18.50
2022-08-14T06:13:44.421Z,18.50
2022-08-14T06:16:15.720Z,18.70
2022-08-14T06:18:51.773Z,18.80
2022-08-14T06:21:23.197Z,19.00
2022-08-14T06:23:52.202Z,19.00
2022-08-14T06:26:22.053Z,19.10
2022-08-14T06:28:52.097Z,19.10
2022-08-14T06:31:21.440Z,19.10
2022-08-14T06:35:04.826Z,19.10
2022-08-14T06:36:41.488Z,19.30
2022-08-14T06:39:10.795Z,19.30
2022-08-14T06:41:57.664Z,19.40
2022-08-14T06:44:32.807Z,19.50
2022-08-14T06:47:03.030Z,19.70
2022-08-14T06:49:40.282Z,19.90
2022-08-14T06:52:16.040Z,20.00
2022-08-14T06:54:45.020Z,20.20
2022-08-14T06:57:14.134Z,20.40
2022-08-14T06:59:43.138Z,20.60
2022-08-14T07:02:29.341Z,20.90
2022-08-14T07:05:16.953Z,21.20
2022-08-14T07:07:53.022Z,23.60
2022-08-14T07:10:24.861Z,26.70
2022-08-14T07:13:03.568Z,26.70
2022-08-14T07:15:39.452Z,26.70
2022-08-14T07:18:09.549Z,27.20
2022-08-14T07:20:38.417Z,27.30
2022-08-14T07:23:11.101Z,27.90
2022-08-14T07:25:52.043Z,28.20
2022-08-14T07:28:23.764Z,29.90
2022-08-14T07:30:56.360Z,28.40
2022-08-14T07:33:29.839Z,27.50
2022-08-14T07:36:00.893Z,29.00
2022-08-14T07:38:37.653Z,31.10
2022-08-14T07:41:11.792Z,30.00
2022-08-14T07:43:43.982Z,29.80
2022-08-14T07:46:21.220Z,28.10
2022-08-14T07:48:58.153Z,30.10
2022-08-14T07:51:34.228Z,30.70
2022-08-14T07:54:11.351Z,29.50
2022-08-14T07:56:47.510Z,31.00
2022-08-14T07:59:41.164Z,31.50
2022-08-14T08:02:18.061Z,31.40
2022-08-14T08:04:54.309Z,30.40
2022-08-14T08:07:30.034Z,30.20
2022-08-14T08:10:46.761Z,28.70
2022-08-14T08:13:14.549Z,28.70
2022-08-14T08:15:46.339Z,29.40
2022-08-14T08:18:20.353Z,30.60
2022-08-14T08:20:59.685Z,30.40
2022-08-14T08:23:40.216Z,29.90
2022-08-14T08:26:13.298Z,30.70
2022-08-14T08:28:43.955Z,30.80
2022-08-14T08:31:13.457Z,29.00
2022-08-14T08:33:44.889Z,30.00
2022-08-14T08:36:19.151Z,28.80
2022-08-14T08:39:18.267Z,30.30
2022-08-14T08:41:44.477Z,29.30
2022-08-14T08:44:17.530Z,28.70
2022-08-14T08:47:05.543Z,31.70
2022-08-14T08:49:48.248Z,31.60
2022-08-14T08:52:24.952Z,30.30
2022-08-14T08:54:57.426Z,31.80
2022-08-14T08:57:28.655Z,29.40
2022-08-14T08:59:58.734Z,30.20
2022-08-14T09:02:27.975Z,30.40
2022-08-14T09:05:04.319Z,32.80
2022-08-14T09:07:33.043Z,31.10
2022-08-14T09:10:01.980Z,30.90
2022-08-14T09:12:35.347Z,31.00
2022-08-14T09:15:11.664Z,29.90
2022-08-14T09:17:42.326Z,29.90
2022-08-14T09:20:12.506Z,29.70
2022-08-14T09:22:47.325Z,29.80
2022-08-14T09:25:19.785Z,31.20
2022-08-14T09:28:07.604Z,30.20
2022-08-14T09:30:39.014Z,30.10
2022-08-14T09:33:56.672Z,29.30
2022-08-14T09:36:48.503Z,29.90
2022-08-14T09:39:30.077Z,29.00
2022-08-14T09:42:20.152Z,27.90
2022-08-14T09:45:10.660Z,27.80
2022-08-14T09:47:44.563Z,27.80
2022-08-14T09:50:25.979Z,28.20
2022-08-14T09:52:58.291Z,28.40
2022-08-14T09:55:41.491Z,28.40
2022-08-14T09:58:19.309Z,28.50
2022-08-14T10:00:52.687Z,28.40
2022-08-14T10:03:33.309Z,28.20
2022-08-14T10:06:10.068Z,27.40
2022-08-14T10:08:44.574Z,27.50
2022-08-14T10:11:19.425Z,27.40
2022-08-14T10:13:55.888Z,27.50
2022-08-14T10:16:33.384Z,28.00
2022-08-14T10:19:09.862Z,27.70
2022-08-14T10:21:58.414Z,27.80
2022-08-14T10:24:37.254Z,28.20
2022-08-14T10:27:16.843Z,27.60
2022-08-14T10:29:48.860Z,27.80
2022-08-14T10:32:29.155Z,28.10
2022-08-14T10:35:13.552Z,27.80
2022-08-14T10:37:48.393Z,28.00
2022-08-14T10:40:44.163Z,28.40
2022-08-14T10:43:23.004Z,28.60
2022-08-14T10:46:03.415Z,28.30
2022-08-14T10:49:00.952Z,27.90
2022-08-14T10:51:36.257Z,27.70
2022-08-14T10:54:25.922Z,27.90
2022-08-14T10:56:59.455Z,28.60
2022-08-14T10:59:30.874Z,28.50
2022-08-14T11:02:05.661Z,28.30
2022-08-14T11:04:35.678Z,28.20
2022-08-14T11:07:21.096Z,28.70
2022-08-14T11:09:55.670Z,29.00
2022-08-14T11:12:34.777Z,28.40
2022-08-14T11:15:10.358Z,28.10
2022-08-14T11:17:38.885Z,28.40
2022-08-14T11:20:13.959Z,28.40
2022-08-14T11:22:52.442Z,28.20
2022-08-14T11:25:43.243Z,28.80
2022-08-14T11:28:19.024Z,28.30
2022-08-14T11:30:53.671Z,28.40
2022-08-14T11:33:24.898Z,28.00
2022-08-14T11:35:59.544Z,28.00
2022-08-14T11:38:29.291Z,28.40
2022-08-14T11:41:00.244Z,29.10
2022-08-14T11:43:30.639Z,28.90
2022-08-14T11:46:03.633Z,28.50
2022-08-14T11:49:01.961Z,28.40
2022-08-14T11:51:36.383Z,28.30
2022-08-14T11:54:34.688Z,28.20
2022-08-14T11:57:04.534Z,28.10
2022-08-14T11:59:34.227Z,28.50
2022-08-14T12:03:01.600Z,28.20
2022-08-14T12:05:00.377Z,28.60
2022-08-14T12:07:30.562Z,29.00
2022-08-14T12:10:00.879Z,29.00
2022-08-14T12:12:51.830Z,28.70
2022-08-14T12:15:31.779Z,29.30
2022-08-14T12:18:02.207Z,29.30
2022-08-14T12:20:36.480Z,29.70
2022-08-14T12:23:07.814Z,29.80
2022-08-14T12:25:37.553Z,29.90
2022-08-14T12:28:26.948Z,29.80
2022-08-14T12:31:12.781Z,29.40
2022-08-14T12:33:47.139Z,30.10
2022-08-14T12:36:22.869Z,30.60
2022-08-14T12:38:54.083Z,30.30
2022-08-14T12:41:28.169Z,29.80
2022-08-14T12:44:04.159Z,29.80
2022-08-14T12:46:35.913Z,29.80
2022-08-14T12:49:10.908Z,29.30
2022-08-14T12:51:42.732Z,29.30
2022-08-14T12:54:19.427Z,29.50
2022-08-14T12:57:06.876Z,30.10
2022-08-14T12:59:37.029Z,30.00
2022-08-14T13:02:25.423Z,30.10
2022-08-14T13:04:56.967Z,30.50
2022-08-14T13:07:32.905Z,29.80
2022-08-14T13:10:47.724Z,29.50
2022-08-14T13:13:13.117Z,30.10
2022-08-14T13:15:45.341Z,29.40
2022-08-14T13:18:16.989Z,29.80
2022-08-14T13:20:51.425Z,29.70
2022-08-14T13:23:31.883Z,30.10
2022-08-14T13:26:02.843Z,30.50
2022-08-14T13:28:33.759Z,30.80
2022-08-14T13:31:11.066Z,30.70
2022-08-14T13:33:41.234Z,30.80
2022-08-14T13:36:23.601Z,30.70
2022-08-14T13:38:55.345Z,30.50
2022-08-14T13:41:31.741Z,30.50
2022-08-14T13:44:05.423Z,30.50
2022-08-14T13:46:44.472Z,30.70
2022-08-14T13:49:15.171Z,30.10
2022-08-14T13:51:47.569Z,30.10
2022-08-14T13:54:21.227Z,30.50
2022-08-14T13:56:53.006Z,30.50
2022-08-14T13:59:37.110Z,30.50
2022-08-14T14:02:08.170Z,30.80
2022-08-14T14:04:40.887Z,30.90
2022-08-14T14:07:13.194Z,30.30
2022-08-14T14:09:51.216Z,30.40
2022-08-14T14:12:49.022Z,29.80
2022-08-14T14:15:14.747Z,30.20
2022-08-14T14:17:47.659Z,30.00
2022-08-14T14:20:35.929Z,29.90
2022-08-14T14:23:09.518Z,30.40
2022-08-14T14:25:46.413Z,30.50
2022-08-14T14:28:24.334Z,30.60
2022-08-14T14:30:57.203Z,30.60
2022-08-14T14:33:49.577Z,30.30
2022-08-14T14:36:21.943Z,30.80
2022-08-14T14:38:54.052Z,30.40
2022-08-14T14:41:24.157Z,30.30
2022-08-14T14:43:55.322Z,30.50
2022-08-14T14:46:36.709Z,30.10
2022-08-14T14:49:08.041Z,30.30
2022-08-14T14:51:41.861Z,30.20
2022-08-14T14:54:13.338Z,30.50
2022-08-14T14:56:51.715Z,30.20
2022-08-14T14:59:24.701Z,29.90
2022-08-14T15:02:00.107Z,30.30
2022-08-14T15:04:28.648Z,30.20
2022-08-14T15:06:57.775Z,30.20
2022-08-14T15:09:27.443Z,30.20
2022-08-14T15:11:57.741Z,30.30
2022-08-14T15:14:56.834Z,30.40
2022-08-14T15:17:17.157Z,30.30
2022-08-14T15:19:53.689Z,30.10
2022-08-14T15:22:28.935Z,30.30
2022-08-14T15:24:58.931Z,30.10
2022-08-14T15:27:29.446Z,29.90
2022-08-14T15:29:59.286Z,29.90
2022-08-14T15:32:29.260Z,29.80
2022-08-14T15:34:58.188Z,30.40
2022-08-14T15:37:33.655Z,30.30
2022-08-14T15:40:02.421Z,30.20
2022-08-14T15:42:38.180Z,30.40
2022-08-14T15:45:12.720Z,30.10
2022-08-14T15:47:44.052Z,30.40
2022-08-14T15:50:13.060Z,30.10
2022-08-14T15:52:43.174Z,30.10
2022-08-14T15:55:16.109Z,30.40
2022-08-14T15:58:02.255Z,30.20
2022-08-14T16:00:52.630Z,30.50
2022-08-14T16:03:27.316Z,30.50
2022-08-14T16:06:04.754Z,30.60
2022-08-14T16:08:34.377Z,30.50
2022-08-14T16:11:05.131Z,30.60
2022-08-14T16:13:42.407Z,30.50
2022-08-14T16:16:47.218Z,30.20
2022-08-14T16:19:10.196Z,30.20
2022-08-14T16:21:58.343Z,30.20
2022-08-14T16:24:34.801Z,30.20
2022-08-14T16:27:05.466Z,30.20
2022-08-14T16:29:39.107Z,30.10
2022-08-14T16:32:33.605Z,30.10
2022-08-14T16:34:59.151Z,30.00
2022-08-14T16:37:30.414Z,30.00
2022-08-14T16:40:04.167Z,29.90
2022-08-14T16:42:39.558Z,30.00
2022-08-14T16:45:27.273Z,30.20
2022-08-14T16:47:57.540Z,29.90
2022-08-14T16:50:40.510Z,29.70
2022-08-14T16:53:17.842Z,29.70
2022-08-14T16:55:53.554Z,29.80
2022-08-14T16:58:30.191Z,29.70
2022-08-14T17:01:22.890Z,29.70
2022-08-14T17:04:04.684Z,29.60
2022-08-14T17:06:42.899Z,29.60
2022-08-14T17:09:33.166Z,29.50
2022-08-14T17:12:07.583Z,29.30
2022-08-14T17:15:21.551Z,29.40
2022-08-14T17:17:58.352Z,29.20
2022-08-14T17:20:54.205Z,29.30
2022-08-14T17:23:19.250Z,29.20
2022-08-14T17:25:50.896Z,29.10
2022-08-14T17:28:52.367Z,29.00
2022-08-14T17:31:10.050Z,28.90
2022-08-14T17:33:44.632Z,28.90
2022-08-14T17:36:24.566Z,28.90
2022-08-14T17:39:06.634Z,28.90
2022-08-14T17:41:43.908Z,28.80
2022-08-14T17:44:34.428Z,28.80
2022-08-14T17:47:14.769Z,28.60
2022-08-14T17:49:51.792Z,28.60
2022-08-14T17:52:34.531Z,28.50
2022-08-14T17:55:06.399Z,28.50
2022-08-14T17:57:40.939Z,28.40
2022-08-14T18:00:13.140Z,28.40
2022-08-14T18:02:50.548Z,28.30
2022-08-14T18:05:23.532Z,28.30
2022-08-14T18:08:33.907Z,28.20
2022-08-14T18:11:00.696Z,28.10
2022-08-14T18:13:51.548Z,27.90
2022-08-14T18:16:20.656Z,27.90
2022-08-14T18:18:52.195Z,27.90
2022-08-14T18:21:42.271Z,27.80
2022-08-14T18:24:19.906Z,27.70
2022-08-14T18:27:02.142Z,27.70
2022-08-14T18:29:33.037Z,27.60
2022-08-14T18:32:01.985Z,27.50
2022-08-14T18:34:50.930Z,27.50
2022-08-14T18:37:22.113Z,27.40
2022-08-14T18:40:02.831Z,27.40
2022-08-14T18:42:45.480Z,27.30
2022-08-14T18:45:26.350Z,27.30
2022-08-14T18:48:33.624Z,27.30
2022-08-14T18:51:19.092Z,27.30
2022-08-14T18:53:57.051Z,27.30
2022-08-14T18:57:00.798Z,27.30
2022-08-14T18:59:39.331Z,27.20
2022-08-14T19:02:45.839Z,27.20
2022-08-14T19:05:14.492Z,27.20
2022-08-14T19:07:48.365Z,27.20
2022-08-14T19:10:35.265Z,27.10
2022-08-14T19:13:11.989Z,27.00
2022-08-14T19:15:43.965Z,27.00
2022-08-14T19:18:27.842Z,26.90
2022-08-14T19:20:59.791Z,26.90
2022-08-14T19:23:41.992Z,26.80
2022-08-14T19:26:35.252Z,26.80
2022-08-14T19:29:37.656Z,26.70
2022-08-14T19:32:27.827Z,26.60
2022-08-14T19:34:59.939Z,26.60
2022-08-14T19:37:52.517Z,26.50
2022-08-14T19:40:34.066Z,26.50
2022-08-14T19:43:06.621Z,26.50
2022-08-14T19:45:37.505Z,26.40
2022-08-14T19:48:13.362Z,26.40
2022-08-14T19:50:46.417Z,26.40
2022-08-14T19:53:17.113Z,26.40
2022-08-14T19:55:59.797Z,26.30
2022-08-14T19:58:54.211Z,26.30
2022-08-14T20:01:37.175Z,26.30
2022-08-14T20:04:47.011Z,26.20
2022-08-14T20:07:00.335Z,26.10
2022-08-14T20:11:06.793Z,26.10
2022-08-14T20:12:29.112Z,26.00
2022-08-14T20:15:15.482Z,25.90
2022-08-14T20:17:53.375Z,25.90
2022-08-14T20:20:31.946Z,25.90
2022-08-14T20:23:10.825Z,25.80
2022-08-14T20:25:57.158Z,25.80
2022-08-14T20:28:35.381Z,25.70
2022-08-14T20:31:17.760Z,25.70
2022-08-14T20:34:24.431Z,25.70
2022-08-14T20:37:09.544Z,25.70
2022-08-14T20:39:54.448Z,25.60
2022-08-14T20:42:50.483Z,25.50
2022-08-14T20:45:23.607Z,25.50
2022-08-14T20:48:01.060Z,25.40
2022-08-14T20:50:32.031Z,25.30
2022-08-14T20:53:05.884Z,25.30
2022-08-14T20:55:41.667Z,25.20
2022-08-14T20:58:43.372Z,25.10
2022-08-14T21:01:34.857Z,25.00
2022-08-14T21:04:14.152Z,24.90
2022-08-14T21:07:22.811Z,24.90
2022-08-14T21:10:04.476Z,25.00
2022-08-14T21:12:35.152Z,24.80
2022-08-14T21:15:10.232Z,24.80
2022-08-14T21:17:43.132Z,24.70
2022-08-14T21:20:26.224Z,24.70
2022-08-14T21:23:00.329Z,24.60
2022-08-14T21:25:31.441Z,24.50
2022-08-14T21:28:04.781Z,24.50
2022-08-14T21:30:46.543Z,24.30
2022-08-14T21:33:22.851Z,24.30
2022-08-14T21:35:54.694Z,24.20
2022-08-14T21:38:33.904Z,24.20
2022-08-14T21:41:42.371Z,24.20
2022-08-14T21:44:17.507Z,24.20
2022-08-14T21:46:50.711Z,24.20
2022-08-14T21:49:23.572Z,23.90
2022-08-14T21:51:58.837Z,23.90
2022-08-14T21:54:49.583Z,23.80
2022-08-14T21:57:56.499Z,23.70
2022-08-14T22:00:34.679Z,23.60
2022-08-14T22:03:04.661Z,23.40
2022-08-14T22:05:34.736Z,23.30
2022-08-14T22:08:07.476Z,23.20
2022-08-14T22:10:41.727Z,23.30
2022-08-14T22:13:11.643Z,23.20
2022-08-14T22:15:43.735Z,23.10
2022-08-14T22:18:20.398Z,23.00
2022-08-14T22:20:53.914Z,22.80
2022-08-14T22:23:25.840Z,22.70
2022-08-14T22:25:55.398Z,22.80
2022-08-14T22:28:32.809Z,22.80
2022-08-14T22:31:03.244Z,22.80
2022-08-14T22:33:32.335Z,22.80
2022-08-14T22:36:26.188Z,22.80
2022-08-14T22:38:54.997Z,22.70
2022-08-14T22:41:29.156Z,22.50
2022-08-14T22:44:05.042Z,22.70
2022-08-14T22:46:35.470Z,22.70
2022-08-14T22:49:16.247Z,22.70
2022-08-14T22:51:55.779Z,22.40
2022-08-14T22:54:51.954Z,22.40
2022-08-14T22:57:14.098Z,22.40
2022-08-14T22:59:43.175Z,22.40
2022-08-14T23:02:16.794Z,22.40
2022-08-14T23:04:53.827Z,22.40
2022-08-14T23:07:26.022Z,22.30
2022-08-14T23:10:31.971Z,22.00
2022-08-14T23:13:05.354Z,22.00
2022-08-14T23:15:35.345Z,22.00
2022-08-14T23:18:07.746Z,21.90
2022-08-14T23:20:42.483Z,21.80
2022-08-14T23:23:22.998Z,21.70
2022-08-14T23:25:59.911Z,21.70
2022-08-14T23:28:33.719Z,21.80
2022-08-14T23:31:34.195Z,21.80
2022-08-14T23:34:06.596Z,21.90
2022-08-14T23:36:37.284Z,21.60
2022-08-14T23:39:12.190Z,21.50
2022-08-14T23:41:52.949Z,21.40
2022-08-14T23:44:24.329Z,21.40
2022-08-14T23:46:56.650Z,21.30
2022-08-14T23:49:59.836Z,21.10
2022-08-14T23:52:50.125Z,20.90
2022-08-14T23:55:10.981Z,20.70
2022-08-14T23:57:43.991Z,20.80
